createdAt,value
2022-12-18T00:01:37.975Z,3.22
2022-12-18T00:04:21.015Z,2.48
2022-12-18T00:06:53.984Z,2.37
2022-12-18T00:09:25.573Z,2.71
2022-12-18T00:14:47.350Z,2.62
2022-12-18T00:17:18.914Z,2.86
2022-12-18T00:19:50.468Z,2.99
2022-12-18T00:22:21.983Z,3.37
2022-12-18T00:24:53.545Z,2.74
2022-12-18T00:27:25.271Z,2.75
2022-12-18T00:29:56.850Z,2.80
2022-12-18T00:32:28.380Z,2.81
2022-12-18T00:35:00.232Z,2.68
2022-12-18T00:37:31.820Z,2.79
2022-12-18T00:40:04.455Z,2.66
2022-12-18T00:42:36.042Z,2.53
2022-12-18T00:45:12.632Z,2.91
2022-12-18T00:47:44.826Z,2.82
2022-12-18T00:50:16.549Z,2.78
2022-12-18T00:52:48.888Z,2.83
2022-12-18T00:55:20.538Z,2.78
2022-12-18T00:57:53.213Z,3.44
2022-12-18T01:00:24.811Z,3.46
2022-12-18T01:02:56.708Z,3.47
2022-12-18T01:05:30.004Z,3.60
2022-12-18T01:08:01.598Z,3.57
2022-12-18T01:10:33.219Z,3.75
2022-12-18T01:13:04.830Z,4.00
2022-12-18T01:15:36.647Z,4.34
2022-12-18T01:18:08.360Z,4.02
2022-12-18T01:20:39.955Z,3.85
2022-12-18T01:23:11.562Z,3.77
2022-12-18T01:25:43.168Z,3.20
2022-12-18T01:28:15.153Z,3.49
2022-12-18T01:30:46.830Z,3.61
2022-12-18T01:33:18.399Z,3.80
2022-12-18T01:35:49.961Z,3.72
2022-12-18T01:38:21.527Z,4.13
2022-12-18T01:40:58.844Z,4.19
2022-12-18T01:43:46.980Z,3.98
2022-12-18T01:46:20.777Z,3.78
2022-12-18T01:49:02.081Z,3.82
2022-12-18T01:51:34.144Z,3.40
2022-12-18T01:54:05.700Z,3.29
2022-12-18T01:56:37.770Z,3.47
2022-12-18T01:59:13.100Z,3.02
2022-12-18T02:01:45.264Z,3.20
2022-12-18T02:04:25.704Z,3.29
2022-12-18T02:07:09.293Z,3.25
2022-12-18T02:09:54.780Z,3.25
2022-12-18T02:12:45.706Z,3.46
2022-12-18T02:15:29.219Z,3.42
2022-12-18T02:18:10.552Z,3.53
2022-12-18T02:20:47.593Z,3.08
2022-12-18T02:23:37.763Z,3.14
2022-12-18T02:26:28.483Z,3.27
2022-12-18T02:29:09.140Z,3.46
2022-12-18T02:31:52.454Z,3.52
2022-12-18T02:34:30.886Z,3.53
2022-12-18T02:37:09.465Z,3.49
2022-12-18T02:39:47.576Z,3.38
2022-12-18T02:42:20.847Z,2.74
2022-12-18T02:44:53.464Z,2.73
2022-12-18T02:47:34.374Z,2.95
2022-12-18T02:50:32.403Z,3.10
2022-12-18T02:53:18.366Z,3.06
2022-12-18T02:56:14.665Z,2.77
2022-12-18T02:59:00.109Z,3.19
2022-12-18T03:01:48.687Z,3.17
2022-12-18T03:04:50.433Z,3.25
2022-12-18T03:07:34.189Z,3.43
2022-12-18T03:10:12.449Z,3.06
2022-12-18T03:12:53.614Z,3.64
2022-12-18T03:15:35.054Z,3.65
2022-12-18T03:18:24.010Z,3.75
2022-12-18T03:21:04.592Z,3.64
2022-12-18T03:23:45.127Z,3.82
2022-12-18T03:26:23.667Z,3.75
2022-12-18T03:29:24.088Z,3.65
2022-12-18T03:32:04.129Z,3.69
2022-12-18T03:34:41.900Z,3.91
2022-12-18T03:37:16.335Z,3.72
2022-12-18T03:39:48.004Z,3.60
2022-12-18T03:42:29.548Z,3.45
2022-12-18T03:45:23.169Z,3.58
2022-12-18T03:48:01.485Z,3.37
2022-12-18T03:50:40.561Z,3.14
2022-12-18T03:53:40.551Z,3.14
2022-12-18T03:56:17.173Z,3.43
2022-12-18T03:58:53.557Z,3.44
2022-12-18T04:01:40.815Z,3.20
2022-12-18T04:04:15.337Z,3.56
2022-12-18T04:06:51.275Z,3.52
2022-12-18T04:09:25.364Z,3.75
2022-12-18T04:11:57.926Z,3.52
2022-12-18T04:14:30.186Z,3.29
2022-12-18T04:17:03.538Z,3.21
2022-12-18T04:19:37.803Z,3.51
2022-12-18T04:22:11.340Z,3.57
2022-12-18T04:24:48.182Z,3.56
2022-12-18T04:27:27.984Z,3.31
2022-12-18T04:30:00.100Z,3.02
2022-12-18T04:32:31.867Z,3.17
2022-12-18T04:35:05.965Z,3.51
2022-12-18T04:37:38.169Z,3.46
2022-12-18T04:40:11.387Z,3.77
2022-12-18T04:42:47.407Z,3.78
2022-12-18T04:45:19.018Z,3.83
2022-12-18T04:47:50.581Z,3.37
2022-12-18T04:50:22.209Z,3.56
2022-12-18T04:52:54.202Z,3.62
2022-12-18T04:55:25.962Z,3.49
2022-12-18T04:57:57.493Z,3.32
2022-12-18T05:00:29.048Z,3.49
2022-12-18T05:03:02.251Z,3.73
2022-12-18T05:05:36.384Z,3.76
2022-12-18T05:08:07.986Z,3.69
2022-12-18T05:10:39.492Z,3.57
2022-12-18T05:13:11.357Z,3.53
2022-12-18T05:15:43.029Z,3.24
2022-12-18T05:18:14.645Z,3.29
2022-12-18T05:20:46.156Z,3.47
2022-12-18T05:23:18.144Z,3.05
2022-12-18T05:25:56.497Z,3.29
2022-12-18T05:28:30.352Z,3.19
2022-12-18T05:31:04.484Z,3.15
2022-12-18T05:33:36.973Z,3.69
2022-12-18T05:36:10.278Z,3.91
2022-12-18T05:38:42.235Z,3.52
2022-12-18T05:41:13.849Z,3.70
2022-12-18T05:43:45.409Z,3.44
2022-12-18T05:46:18.370Z,3.25
2022-12-18T05:48:49.937Z,3.32
2022-12-18T05:51:23.107Z,3.32
2022-12-18T05:53:54.646Z,3.46
2022-12-18T05:56:26.478Z,3.30
2022-12-18T05:58:58.033Z,3.60
2022-12-18T06:01:29.611Z,3.89
2022-12-18T06:04:01.236Z,3.99
2022-12-18T06:06:33.426Z,3.73
2022-12-18T06:09:05.392Z,3.73
2022-12-18T06:11:38.408Z,3.56
2022-12-18T06:14:10.815Z,4.02
2022-12-18T06:16:42.401Z,3.99
2022-12-18T06:19:16.796Z,3.90
2022-12-18T06:21:48.426Z,4.12
2022-12-18T06:24:20.010Z,3.99
2022-12-18T06:26:51.629Z,4.34
2022-12-18T06:29:23.207Z,4.27
2022-12-18T06:31:54.785Z,4.28
2022-12-18T06:34:27.056Z,4.04
2022-12-18T06:36:59.000Z,4.01
2022-12-18T06:39:31.401Z,4.24
2022-12-18T06:42:04.459Z,4.03
2022-12-18T06:44:36.047Z,3.96
2022-12-18T06:47:07.559Z,4.02
2022-12-18T06:49:39.136Z,3.67
2022-12-18T06:52:10.786Z,3.34
2022-12-18T06:54:42.293Z,3.87
2022-12-18T06:57:13.819Z,3.68
2022-12-18T06:59:45.353Z,3.84
2022-12-18T07:02:17.002Z,3.83
2022-12-18T07:04:48.644Z,4.04
2022-12-18T07:07:20.451Z,3.95
2022-12-18T07:09:52.356Z,4.00
2022-12-18T07:12:23.969Z,4.28
2022-12-18T07:14:55.642Z,4.41
2022-12-18T07:17:27.287Z,4.52
2022-12-18T07:19:58.843Z,4.45
2022-12-18T07:22:30.844Z,4.09
2022-12-18T07:25:02.431Z,4.62
2022-12-18T07:27:33.992Z,4.42
2022-12-18T07:30:06.550Z,4.23
2022-12-18T07:32:38.151Z,4.40
2022-12-18T07:35:09.687Z,3.76
2022-12-18T07:37:41.206Z,4.33
2022-12-18T07:40:13.154Z,4.28
2022-12-18T07:42:44.854Z,3.68
2022-12-18T07:45:16.539Z,2.95
2022-12-18T07:47:48.068Z,3.68
2022-12-18T07:50:20.147Z,3.82
2022-12-18T07:52:51.822Z,3.72
2022-12-18T07:55:23.394Z,4.33
2022-12-18T07:57:59.400Z,4.02
2022-12-18T08:00:32.397Z,3.51
2022-12-18T08:03:04.141Z,3.62
2022-12-18T08:05:35.735Z,3.73
2022-12-18T08:08:07.355Z,3.38
2022-12-18T08:10:39.371Z,3.68
2022-12-18T08:13:10.899Z,3.43
2022-12-18T08:15:42.493Z,3.41
2022-12-18T08:18:14.576Z,3.10
2022-12-18T08:20:46.260Z,3.07
2022-12-18T08:23:17.946Z,2.97
2022-12-18T08:25:49.608Z,3.60
2022-12-18T08:28:21.117Z,3.29
2022-12-18T08:30:53.616Z,3.45
2022-12-18T08:33:25.418Z,3.68
2022-12-18T08:35:56.999Z,3.19
2022-12-18T08:38:29.212Z,3.58
2022-12-18T08:41:05.168Z,3.68
2022-12-18T08:43:37.014Z,3.88
2022-12-18T08:46:08.920Z,4.27
2022-12-18T08:48:40.505Z,3.90
2022-12-18T08:51:12.130Z,4.06
2022-12-18T08:53:44.670Z,4.14
2022-12-18T08:56:16.911Z,3.77
2022-12-18T08:58:48.495Z,3.50
2022-12-18T09:01:20.707Z,4.00
2022-12-18T09:03:52.357Z,4.73
2022-12-18T09:06:24.422Z,4.96
2022-12-18T09:08:56.034Z,4.67
2022-12-18T09:11:29.843Z,4.53
2022-12-18T09:14:02.458Z,4.01
2022-12-18T09:16:34.457Z,4.99
2022-12-18T09:19:06.575Z,5.31
2022-12-18T09:21:38.226Z,4.93
2022-12-18T09:24:13.719Z,4.69
2022-12-18T09:26:47.331Z,5.07
2022-12-18T09:29:19.270Z,5.46
2022-12-18T09:31:50.846Z,5.57
2022-12-18T09:34:22.849Z,5.87
2022-12-18T09:36:54.419Z,5.72
2022-12-18T09:39:26.026Z,6.07
2022-12-18T09:41:59.689Z,6.11
2022-12-18T09:44:44.505Z,6.08
2022-12-18T09:47:28.500Z,6.32
2022-12-18T09:50:04.896Z,6.16
2022-12-18T09:52:46.072Z,6.30
2022-12-18T09:55:24.598Z,5.98
2022-12-18T09:58:06.731Z,5.81
2022-12-18T10:00:39.298Z,6.05
2022-12-18T10:03:14.093Z,5.79
2022-12-18T10:05:58.069Z,6.38
2022-12-18T10:08:44.632Z,6.73
2022-12-18T10:12:13.908Z,6.99
2022-12-18T10:15:00.738Z,6.42
2022-12-18T10:17:50.357Z,6.25
2022-12-18T10:20:49.700Z,5.25
2022-12-18T10:23:43.649Z,6.24
2022-12-18T10:26:19.623Z,5.44
2022-12-18T10:28:54.549Z,5.21
2022-12-18T10:31:26.691Z,5.00
2022-12-18T10:33:58.287Z,5.08
2022-12-18T10:36:30.232Z,4.43
2022-12-18T10:39:17.608Z,4.99
2022-12-18T10:41:49.368Z,5.42
2022-12-18T10:44:25.359Z,5.84
2022-12-18T10:47:10.110Z,5.65
2022-12-18T10:49:51.268Z,6.39
2022-12-18T10:52:26.029Z,6.55
2022-12-18T10:55:04.814Z,6.82
2022-12-18T10:57:40.034Z,7.49
2022-12-18T11:00:31.612Z,7.47
2022-12-18T11:03:03.438Z,7.45
2022-12-18T11:05:35.641Z,7.81
2022-12-18T11:08:21.604Z,7.58
2022-12-18T11:10:53.183Z,7.44
2022-12-18T11:13:29.953Z,7.32
2022-12-18T11:16:01.868Z,7.01
2022-12-18T11:18:36.444Z,7.58
2022-12-18T11:21:12.725Z,7.43
2022-12-18T11:23:54.842Z,7.31
2022-12-18T11:26:36.116Z,7.61
2022-12-18T11:29:11.671Z,7.75
2022-12-18T11:31:43.291Z,7.82
2022-12-18T11:34:31.352Z,7.19
2022-12-18T11:37:05.304Z,7.87
2022-12-18T11:40:12.103Z,8.14
2022-12-18T11:42:55.499Z,6.58
2022-12-18T11:45:29.380Z,6.54
2022-12-18T11:48:18.876Z,6.47
2022-12-18T11:50:54.232Z,7.81
2022-12-18T11:53:27.762Z,8.09
2022-12-18T11:56:20.537Z,8.34
2022-12-18T11:58:58.853Z,7.06
2022-12-18T12:01:44.688Z,6.79
2022-12-18T12:04:34.985Z,7.68
2022-12-18T12:07:29.319Z,8.79
2022-12-18T12:10:24.512Z,10.24
2022-12-18T12:13:12.921Z,11.07
2022-12-18T12:16:05.145Z,12.79
2022-12-18T12:18:52.100Z,14.60
2022-12-18T12:21:43.779Z,17.02
2022-12-18T12:24:47.900Z,18.67
2022-12-18T12:27:53.557Z,18.66
2022-12-18T12:30:48.668Z,19.40
2022-12-18T12:33:59.413Z,20.12
2022-12-18T12:36:47.697Z,19.25
2022-12-18T12:39:33.544Z,17.54
2022-12-18T12:42:13.430Z,18.61
2022-12-18T12:44:56.267Z,15.62
2022-12-18T12:47:42.956Z,17.04
2022-12-18T12:50:19.448Z,18.00
2022-12-18T12:52:58.183Z,18.80
2022-12-18T12:55:31.146Z,18.92
2022-12-18T12:58:20.065Z,18.91
2022-12-18T13:01:05.312Z,19.80
2022-12-18T13:03:49.946Z,19.45
2022-12-18T13:06:25.434Z,17.78
2022-12-18T13:09:00.269Z,18.80
2022-12-18T13:11:43.272Z,20.07
2022-12-18T13:14:24.498Z,20.98
2022-12-18T13:17:22.499Z,20.91
2022-12-18T13:20:11.069Z,21.68
2022-12-18T13:22:50.296Z,21.98
2022-12-18T13:25:38.932Z,18.79
2022-12-18T13:28:14.652Z,17.40
2022-12-18T13:30:57.428Z,13.93
2022-12-18T13:33:29.228Z,11.77
2022-12-18T13:36:27.675Z,11.65
2022-12-18T13:39:18.431Z,12.11
2022-12-18T13:42:14.811Z,14.31
2022-12-18T13:44:47.976Z,16.44
2022-12-18T13:47:35.649Z,16.14
2022-12-18T13:50:24.671Z,16.12
2022-12-18T13:52:56.373Z,15.30
2022-12-18T13:55:28.078Z,16.42
2022-12-18T13:58:07.209Z,16.22
2022-12-18T14:00:43.593Z,12.22
2022-12-18T14:03:28.689Z,14.77
2022-12-18T14:06:06.980Z,16.96
2022-12-18T14:08:42.709Z,16.97
2022-12-18T14:11:23.830Z,16.61
2022-12-18T14:13:58.244Z,15.37
2022-12-18T14:16:31.138Z,13.57
2022-12-18T14:19:05.206Z,13.06
2022-12-18T14:21:50.881Z,12.92
2022-12-18T14:24:22.957Z,11.43
2022-12-18T14:26:54.551Z,11.22
2022-12-18T14:29:31.514Z,10.75
2022-12-18T14:32:18.125Z,10.48
2022-12-18T14:34:54.644Z,10.29
2022-12-18T14:37:27.780Z,10.23
2022-12-18T14:40:08.745Z,9.56
2022-12-18T14:42:43.009Z,9.64
2022-12-18T14:45:42.181Z,9.32
2022-12-18T14:48:23.675Z,8.60
2022-12-18T14:51:19.691Z,8.77
2022-12-18T14:53:58.584Z,8.07
2022-12-18T14:56:34.300Z,7.85
2022-12-18T14:59:23.848Z,7.76
2022-12-18T15:02:21.084Z,7.26
2022-12-18T15:05:12.734Z,6.65
2022-12-18T15:07:50.845Z,6.94
2022-12-18T15:10:28.624Z,6.67
2022-12-18T15:13:00.117Z,6.05
2022-12-18T15:15:34.996Z,5.44
2022-12-18T15:18:09.810Z,6.16
2022-12-18T15:20:53.153Z,6.10
2022-12-18T15:23:31.774Z,5.55
2022-12-18T15:26:10.072Z,5.68
2022-12-18T15:28:51.859Z,6.06
2022-12-18T15:31:32.026Z,5.81
2022-12-18T15:34:09.357Z,5.34
2022-12-18T15:36:41.268Z,5.16
2022-12-18T15:39:14.248Z,5.07
2022-12-18T15:41:46.146Z,5.34
2022-12-18T15:44:25.623Z,5.27
2022-12-18T15:46:58.110Z,4.96
2022-12-18T15:49:34.929Z,5.49
2022-12-18T15:52:07.155Z,4.62
2022-12-18T15:54:38.849Z,4.49
2022-12-18T15:57:11.778Z,4.71
2022-12-18T15:59:43.405Z,4.98
2022-12-18T16:02:19.299Z,5.16
2022-12-18T16:04:52.941Z,4.75
2022-12-18T16:07:25.077Z,4.50
2022-12-18T16:09:57.249Z,4.36
2022-12-18T16:12:29.087Z,4.87
2022-12-18T16:15:01.373Z,4.77
2022-12-18T16:17:33.356Z,5.07
2022-12-18T16:20:05.694Z,4.68
2022-12-18T16:22:37.343Z,4.98
2022-12-18T16:25:22.939Z,4.65
2022-12-18T16:27:56.155Z,4.58
2022-12-18T16:30:32.737Z,4.42
2022-12-18T16:33:11.403Z,4.08
2022-12-18T16:35:43.234Z,4.33
2022-12-18T16:38:15.011Z,4.38
2022-12-18T16:40:46.635Z,4.54
2022-12-18T16:43:18.367Z,4.82
2022-12-18T16:45:51.427Z,4.97
2022-12-18T16:48:23.708Z,5.10
2022-12-18T16:51:05.085Z,5.07
2022-12-18T16:53:36.688Z,4.95
2022-12-18T16:56:08.262Z,4.98
2022-12-18T16:58:39.852Z,4.98
2022-12-18T17:01:13.282Z,5.09
2022-12-18T17:03:45.346Z,4.79
2022-12-18T17:06:18.961Z,4.87
2022-12-18T17:09:02.099Z,4.82
2022-12-18T17:11:35.109Z,5.04
2022-12-18T17:14:10.250Z,4.92
2022-12-18T17:16:42.737Z,5.36
2022-12-18T17:19:17.303Z,5.43
2022-12-18T17:21:50.629Z,5.48
2022-12-18T17:24:22.341Z,5.36
2022-12-18T17:26:53.945Z,5.26
2022-12-18T17:29:25.569Z,4.97
2022-12-18T17:32:00.324Z,4.32
2022-12-18T17:34:32.199Z,4.57
2022-12-18T17:37:03.739Z,4.74
2022-12-18T17:39:35.361Z,4.66
2022-12-18T17:42:06.922Z,4.30
2022-12-18T17:44:49.756Z,4.55
2022-12-18T17:47:21.370Z,4.84
2022-12-18T17:49:52.972Z,4.87
2022-12-18T17:52:26.265Z,5.00
2022-12-18T17:54:57.945Z,5.00
2022-12-18T17:57:29.525Z,4.43
2022-12-18T18:00:01.094Z,4.80
2022-12-18T18:02:32.779Z,4.87
2022-12-18T18:05:05.482Z,4.65
2022-12-18T18:07:37.056Z,4.80
2022-12-18T18:10:09.045Z,5.02
2022-12-18T18:12:40.601Z,5.06
2022-12-18T18:15:12.212Z,5.08
2022-12-18T18:17:44.707Z,5.15
2022-12-18T18:20:20.815Z,5.21
2022-12-18T18:22:54.250Z,5.17
2022-12-18T18:25:25.852Z,5.12
2022-12-18T18:27:57.438Z,4.87
2022-12-18T18:30:28.989Z,4.84
2022-12-18T18:33:00.767Z,4.97
2022-12-18T18:35:53.456Z,5.06
2022-12-18T18:38:24.070Z,5.02
2022-12-18T18:41:03.893Z,4.46
2022-12-18T18:43:35.521Z,4.69
2022-12-18T18:46:12.365Z,4.80
2022-12-18T18:48:44.129Z,4.91
2022-12-18T18:51:21.547Z,4.84
2022-12-18T18:53:53.821Z,4.85
2022-12-18T18:56:56.586Z,4.89
2022-12-18T18:59:17.825Z,5.09
2022-12-18T19:01:49.888Z,5.22
2022-12-18T19:04:21.509Z,5.19
2022-12-18T19:06:53.300Z,5.24
2022-12-18T19:09:27.596Z,5.19
2022-12-18T19:12:00.904Z,5.32
2022-12-18T19:14:32.985Z,5.43
2022-12-18T19:17:05.845Z,5.50
2022-12-18T19:19:38.403Z,5.46
2022-12-18T19:22:10.067Z,5.40
2022-12-18T19:24:41.893Z,5.46
2022-12-18T19:27:13.588Z,5.55
2022-12-18T19:29:45.101Z,5.53
2022-12-18T19:32:16.877Z,5.61
2022-12-18T19:34:48.457Z,5.37
2022-12-18T19:37:21.057Z,5.60
2022-12-18T19:39:52.827Z,5.43
2022-12-18T19:42:29.299Z,5.55
2022-12-18T19:45:03.850Z,4.95
2022-12-18T19:47:35.546Z,5.47
2022-12-18T19:50:14.621Z,5.57
2022-12-18T19:52:46.447Z,5.67
2022-12-18T19:55:18.230Z,5.80
2022-12-18T19:57:49.894Z,5.65
2022-12-18T20:00:21.494Z,5.86
2022-12-18T20:02:56.745Z,5.94
2022-12-18T20:05:34.319Z,5.86
2022-12-18T20:08:05.884Z,5.68
2022-12-18T20:11:20.746Z,5.44
2022-12-18T20:13:54.275Z,5.32
2022-12-18T20:16:25.913Z,5.33
2022-12-18T20:18:58.983Z,5.55
2022-12-18T20:21:30.948Z,5.87
2022-12-18T20:24:02.576Z,5.72
2022-12-18T20:26:34.313Z,5.90
2022-12-18T20:29:06.262Z,5.63
2022-12-18T20:31:37.852Z,5.55
2022-12-18T20:34:09.519Z,5.73
2022-12-18T20:36:42.124Z,5.77
2022-12-18T20:39:13.814Z,5.70
2022-12-18T20:41:46.060Z,5.77
2022-12-18T20:44:22.878Z,5.63
2022-12-18T20:46:57.692Z,5.63
2022-12-18T20:49:29.447Z,5.75
2022-12-18T20:52:00.981Z,5.79
2022-12-18T20:54:32.612Z,5.85
2022-12-18T20:57:04.913Z,5.83
2022-12-18T20:59:36.499Z,5.90
2022-12-18T21:02:13.363Z,5.87
2022-12-18T21:04:45.208Z,5.70
2022-12-18T21:07:16.785Z,5.26
2022-12-18T21:09:48.361Z,5.45
2022-12-18T21:12:20.234Z,5.16
2022-12-18T21:14:51.909Z,4.92
2022-12-18T21:17:23.475Z,5.35
2022-12-18T21:19:57.553Z,5.68
2022-12-18T21:22:29.882Z,5.76
2022-12-18T21:25:01.442Z,5.77
2022-12-18T21:27:33.331Z,5.79
2022-12-18T21:30:05.701Z,5.92
2022-12-18T21:32:37.327Z,6.06
2022-12-18T21:35:09.267Z,5.90
2022-12-18T21:37:40.909Z,5.77
2022-12-18T21:40:13.050Z,5.77
2022-12-18T21:42:44.858Z,5.87
2022-12-18T21:45:16.493Z,5.77
2022-12-18T21:47:48.117Z,5.83
2022-12-18T21:50:19.660Z,5.94
2022-12-18T21:52:51.222Z,5.93
2022-12-18T21:55:22.748Z,6.07
2022-12-18T21:57:54.324Z,5.94
2022-12-18T22:00:25.861Z,5.96
2022-12-18T22:03:01.203Z,5.98
2022-12-18T22:05:49.693Z,5.97
2022-12-18T22:08:43.052Z,5.77
2022-12-18T22:11:15.289Z,5.81
2022-12-18T22:13:48.928Z,5.96
2022-12-18T22:16:20.555Z,5.96
2022-12-18T22:18:52.264Z,6.02
2022-12-18T22:21:29.574Z,6.10
2022-12-18T22:24:15.005Z,6.06
2022-12-18T22:26:47.284Z,6.04
2022-12-18T22:29:24.160Z,6.03
2022-12-18T22:31:55.802Z,6.10
2022-12-18T22:34:27.370Z,6.00
2022-12-18T22:36:58.943Z,5.97
2022-12-18T22:39:31.799Z,5.98
2022-12-18T22:42:03.929Z,6.02
2022-12-18T22:44:35.654Z,6.07
2022-12-18T22:47:07.587Z,5.63
2022-12-18T22:49:39.456Z,5.80
2022-12-18T22:52:11.595Z,5.57
2022-12-18T22:54:43.156Z,5.83
2022-12-18T22:57:14.738Z,5.70
2022-12-18T22:59:46.340Z,5.69
2022-12-18T23:02:18.622Z,5.77
2022-12-18T23:04:50.410Z,5.80
2022-12-18T23:07:22.015Z,5.09
2022-12-18T23:09:58.416Z,5.37
2022-12-18T23:12:32.408Z,5.61
2022-12-18T23:15:06.541Z,5.77
2022-12-18T23:17:38.095Z,5.89
2022-12-18T23:20:11.726Z,5.85
2022-12-18T23:22:43.301Z,5.41
2022-12-18T23:25:14.831Z,5.72
2022-12-18T23:27:46.413Z,5.46
2022-12-18T23:30:18.203Z,5.86
2022-12-18T23:32:49.875Z,5.65
2022-12-18T23:35:21.409Z,5.57
2022-12-18T23:38:00.631Z,6.00
2022-12-18T23:40:32.369Z,5.94
2022-12-18T23:43:03.905Z,5.77
2022-12-18T23:45:38.248Z,5.98
2022-12-18T23:48:09.827Z,6.11
2022-12-18T23:50:41.372Z,5.93
2022-12-18T23:53:13.423Z,5.93
2022-12-18T23:55:45.667Z,6.00
2022-12-18T23:58:20.939Z,6.05
